SBCR/CMG METAR and TAF weather

Enter ICAO airport designator
Station Type Date Time Source
SBCR METAR 2020/07/11 20:00 UTC NOAA

SBCR 112000Z 02006KT 340V050 9999 FEW040 32/17 Q1009


Station Type Date Time Source
SBCR Decoded METAR 2020/07/11 20:00 UTC NOAA

Corumba, Brazil (SBCR) 19-05S 057-30W
Jul 11, 2020 - 04:00 PM EDT / 2020.07.11 2000 UTC
Wind: from the NNE (020 degrees) at 7 MPH (6 KT) (direction variable):0
Visibility: greater than 7 mile(s):0
Sky conditions: mostly clear
Temperature: 89 F (32 C)
Dew Point: 62 F (17 C)
Relative Humidity: 40%
Pressure (altimeter): 29.80 in. Hg (1009 hPa)
ob: SBCR 112000Z 02006KT 340V050 9999 FEW040 32/17 Q1009
cycle: 20

Station Type Date Time Source
SBCR TAF 2020/07/11 18:51 UTC NOAA

TAF TAF SBCR 111500Z 1118/1218 33005KT CAVOK TN20/1208Z TX32/1218Z
BECMG 1122/1124 25006KT
BECMG 1212/1214 33005KT
RMK PDP

Example: see airport list